Candiota, Brazil
Current Conditions -  °F | °C
As of 4:00 AM on Friday 31 Oct 2014 (Local Time) from SBPK Reporting Station
Overcast Overcast  
Wind Chill: 64°   Ceiling: 1300
Heat Index: 64°   Visibility: 6mi
Dew Point: 64°   Wind: 2mph
Humidity: 100%   Direction: 300°WNW
Pressure: 29.88"   Gusts: NA
Location:  31.56°S, 53.67°W
Report Text: SBPK 310600Z 30002KT 9000 OVC013 18/18 Q1012
Loading
Personal Weather Stations






























Interactive Weather Map
Tropical Storm Tracking
New forecast layout! Learn more

10-Day Weather Forecast

Advertisements
Track Severe Weather on mobile